sensor_id;sensor_type;location;lat;lon;timestamp;P1;durP1;ratioP1;P2;durP2;ratioP2
70733;SDS011;58320;48.804;9.252;2023-08-31T16:36:01;6.00;;;2.28;;
70733;SDS011;58320;48.804;9.252;2023-08-31T16:38:28;4.82;;;2.10;;
70733;SDS011;58320;48.804;9.252;2023-08-31T16:40:55;5.55;;;2.30;;
70733;SDS011;58320;48.804;9.252;2023-08-31T16:43:21;6.63;;;2.38;;
70733;SDS011;58320;48.804;9.252;2023-08-31T16:45:49;6.83;;;2.60;;
70733;SDS011;58320;48.804;9.252;2023-08-31T16:48:15;4.75;;;2.45;;
70733;SDS011;58320;48.804;9.252;2023-08-31T16:50:41;5.93;;;2.22;;
70733;SDS011;58320;48.804;9.252;2023-08-31T16:53:07;4.97;;;2.40;;
70733;SDS011;58320;48.804;9.252;2023-08-31T16:55:33;7.07;;;2.60;;
70733;SDS011;58320;48.804;9.252;2023-08-31T16:58:06;5.18;;;2.30;;
70733;SDS011;58320;48.804;9.252;2023-08-31T17:00:32;4.93;;;2.30;;
70733;SDS011;58320;48.804;9.252;2023-08-31T17:02:58;5.88;;;2.40;;
70733;SDS011;58320;48.804;9.252;2023-08-31T17:05:24;5.75;;;2.30;;
70733;SDS011;58320;48.804;9.252;2023-08-31T17:07:54;6.10;;;2.30;;
70733;SDS011;58320;48.804;9.252;2023-08-31T17:10:20;6.80;;;2.63;;
70733;SDS011;58320;48.804;9.252;2023-08-31T17:12:46;5.97;;;2.50;;
70733;SDS011;58320;48.804;9.252;2023-08-31T17:15:12;5.15;;;2.72;;
70733;SDS011;58320;48.804;9.252;2023-08-31T17:17:38;5.50;;;2.70;;
70733;SDS011;58320;48.804;9.252;2023-08-31T17:20:08;6.82;;;3.20;;
70733;SDS011;58320;48.804;9.252;2023-08-31T17:22:41;6.03;;;2.90;;
70733;SDS011;58320;48.804;9.252;2023-08-31T17:25:08;7.03;;;2.70;;
70733;SDS011;58320;48.804;9.252;2023-08-31T17:27:34;8.60;;;2.67;;
70733;SDS011;58320;48.804;9.252;2023-08-31T17:30:00;6.38;;;2.83;;
70733;SDS011;58320;48.804;9.252;2023-08-31T17:32:30;6.70;;;2.53;;
70733;SDS011;58320;48.804;9.252;2023-08-31T17:34:56;5.88;;;2.45;;
70733;SDS011;58320;48.804;9.252;2023-08-31T17:37:22;7.30;;;2.80;;
70733;SDS011;58320;48.804;9.252;2023-08-31T17:39:47;5.73;;;2.40;;
70733;SDS011;58320;48.804;9.252;2023-08-31T17:42:13;7.00;;;2.75;;
70733;SDS011;58320;48.804;9.252;2023-08-31T17:44:39;5.97;;;2.53;;
70733;SDS011;58320;48.804;9.252;2023-08-31T17:47:04;5.25;;;2.42;;
70733;SDS011;58320;48.804;9.252;2023-08-31T17:49:30;5.97;;;2.90;;
70733;SDS011;58320;48.804;9.252;2023-08-31T17:51:56;5.85;;;2.92;;
70733;SDS011;58320;48.804;9.252;2023-08-31T17:54:22;8.20;;;3.00;;
70733;SDS011;58320;48.804;9.252;2023-08-31T17:56:48;8.27;;;2.67;;
70733;SDS011;58320;48.804;9.252;2023-08-31T17:59:14;5.78;;;2.45;;
70733;SDS011;58320;48.804;9.252;2023-08-31T18:01:42;6.65;;;2.70;;
70733;SDS011;58320;48.804;9.252;2023-08-31T18:04:11;7.28;;;2.55;;
70733;SDS011;58320;48.804;9.252;2023-08-31T18:06:37;6.57;;;2.73;;
70733;SDS011;58320;48.804;9.252;2023-08-31T18:09:03;5.82;;;2.90;;
70733;SDS011;58320;48.804;9.252;2023-08-31T18:11:34;5.70;;;2.53;;
70733;SDS011;58320;48.804;9.252;2023-08-31T18:13:59;6.33;;;2.70;;
70733;SDS011;58320;48.804;9.252;2023-08-31T18:16:25;5.90;;;2.72;;
70733;SDS011;58320;48.804;9.252;2023-08-31T18:18:51;6.65;;;2.67;;
70733;SDS011;58320;48.804;9.252;2023-08-31T18:21:17;7.20;;;2.95;;
70733;SDS011;58320;48.804;9.252;2023-08-31T18:23:43;4.73;;;2.50;;
70733;SDS011;58320;48.804;9.252;2023-08-31T18:26:09;5.38;;;2.72;;
70733;SDS011;58320;48.804;9.252;2023-08-31T18:28:35;6.95;;;3.00;;
70733;SDS011;58320;48.804;9.252;2023-08-31T18:31:02;5.13;;;2.80;;
70733;SDS011;58320;48.804;9.252;2023-08-31T18:33:28;6.33;;;2.90;;
70733;SDS011;58320;48.804;9.252;2023-08-31T18:35:55;6.38;;;3.33;;
70733;SDS011;58320;48.804;9.252;2023-08-31T18:38:26;9.93;;;3.13;;
70733;SDS011;58320;48.804;9.252;2023-08-31T18:40:53;6.53;;;3.70;;
70733;SDS011;58320;48.804;9.252;2023-08-31T18:43:19;7.33;;;4.07;;
70733;SDS011;58320;48.804;9.252;2023-08-31T18:45:47;7.95;;;3.38;;
70733;SDS011;58320;48.804;9.252;2023-08-31T18:48:14;7.95;;;3.50;;
70733;SDS011;58320;48.804;9.252;2023-08-31T18:50:40;7.88;;;3.53;;
70733;SDS011;58320;48.804;9.252;2023-08-31T18:53:07;6.22;;;3.65;;
70733;SDS011;58320;48.804;9.252;2023-08-31T18:55:34;7.20;;;3.73;;
70733;SDS011;58320;48.804;9.252;2023-08-31T18:58:03;6.72;;;3.58;;
70733;SDS011;58320;48.804;9.252;2023-08-31T19:00:30;9.20;;;4.05;;
70733;SDS011;58320;48.804;9.252;2023-08-31T19:02:55;6.75;;;3.47;;
70733;SDS011;58320;48.804;9.252;2023-08-31T19:05:22;6.40;;;3.22;;
70733;SDS011;58320;48.804;9.252;2023-08-31T19:07:48;6.73;;;3.23;;
70733;SDS011;58320;48.804;9.252;2023-08-31T19:10:16;5.35;;;2.75;;
70733;SDS011;58320;48.804;9.252;2023-08-31T19:12:43;6.50;;;3.30;;
70733;SDS011;58320;48.804;9.252;2023-08-31T19:15:12;7.72;;;3.50;;
70733;SDS011;58320;48.804;9.252;2023-08-31T19:17:39;6.93;;;3.15;;
70733;SDS011;58320;48.804;9.252;2023-08-31T19:20:07;8.20;;;3.83;;
70733;SDS011;58320;48.804;9.252;2023-08-31T19:22:34;6.80;;;3.10;;
70733;SDS011;58320;48.804;9.252;2023-08-31T19:25:00;7.28;;;3.40;;
70733;SDS011;58320;48.804;9.252;2023-08-31T19:27:26;7.95;;;3.20;;
70733;SDS011;58320;48.804;9.252;2023-08-31T19:29:52;7.70;;;3.57;;
70733;SDS011;58320;48.804;9.252;2023-08-31T19:32:18;9.52;;;3.20;;
70733;SDS011;58320;48.804;9.252;2023-08-31T19:34:44;8.80;;;3.03;;
70733;SDS011;58320;48.804;9.252;2023-08-31T19:37:09;7.03;;;3.10;;
70733;SDS011;58320;48.804;9.252;2023-08-31T19:39:35;10.27;;;4.05;;
70733;SDS011;58320;48.804;9.252;2023-08-31T19:42:01;7.87;;;3.00;;
70733;SDS011;58320;48.804;9.252;2023-08-31T19:44:27;8.55;;;3.80;;
70733;SDS011;58320;48.804;9.252;2023-08-31T19:46:53;7.07;;;2.90;;
70733;SDS011;58320;48.804;9.252;2023-08-31T19:49:18;6.17;;;3.03;;
70733;SDS011;58320;48.804;9.252;2023-08-31T19:51:44;7.68;;;3.17;;
70733;SDS011;58320;48.804;9.252;2023-08-31T19:54:10;8.37;;;3.40;;
70733;SDS011;58320;48.804;9.252;2023-08-31T19:56:39;6.90;;;2.85;;
70733;SDS011;58320;48.804;9.252;2023-08-31T19:59:06;9.65;;;3.38;;
70733;SDS011;58320;48.804;9.252;2023-08-31T20:01:32;9.27;;;3.03;;
70733;SDS011;58320;48.804;9.252;2023-08-31T20:04:04;7.03;;;2.70;;
70733;SDS011;58320;48.804;9.252;2023-08-31T20:06:33;8.68;;;3.33;;
70733;SDS011;58320;48.804;9.252;2023-08-31T20:08:59;8.40;;;3.10;;
70733;SDS011;58320;48.804;9.252;2023-08-31T20:11:24;6.60;;;3.17;;
70733;SDS011;58320;48.804;9.252;2023-08-31T20:13:51;8.45;;;3.28;;
70733;SDS011;58320;48.804;9.252;2023-08-31T20:16:20;6.57;;;2.80;;
70733;SDS011;58320;48.804;9.252;2023-08-31T20:18:47;5.20;;;2.70;;
70733;SDS011;58320;48.804;9.252;2023-08-31T20:21:12;7.50;;;3.07;;
70733;SDS011;58320;48.804;9.252;2023-08-31T20:23:40;7.30;;;3.17;;
70733;SDS011;58320;48.804;9.252;2023-08-31T20:26:06;7.65;;;2.92;;
70733;SDS011;58320;48.804;9.252;2023-08-31T20:28:33;6.88;;;3.42;;
70733;SDS011;58320;48.804;9.252;2023-08-31T20:30:59;8.37;;;3.10;;
70733;SDS011;58320;48.804;9.252;2023-08-31T20:33:26;7.47;;;3.38;;
70733;SDS011;58320;48.804;9.252;2023-08-31T20:36:02;8.85;;;3.70;;
70733;SDS011;58320;48.804;9.252;2023-08-31T20:38:28;5.88;;;2.67;;
70733;SDS011;58320;48.804;9.252;2023-08-31T20:40:54;7.13;;;3.53;;
70733;SDS011;58320;48.804;9.252;2023-08-31T20:43:22;5.80;;;3.10;;
70733;SDS011;58320;48.804;9.252;2023-08-31T20:45:48;7.75;;;3.33;;
70733;SDS011;58320;48.804;9.252;2023-08-31T20:48:14;7.97;;;3.63;;
70733;SDS011;58320;48.804;9.252;2023-08-31T20:50:40;8.07;;;3.70;;
70733;SDS011;58320;48.804;9.252;2023-08-31T20:53:06;9.18;;;3.50;;
70733;SDS011;58320;48.804;9.252;2023-08-31T20:55:31;8.15;;;3.53;;
70733;SDS011;58320;48.804;9.252;2023-08-31T20:57:57;7.40;;;3.70;;
70733;SDS011;58320;48.804;9.252;2023-08-31T21:00:23;6.22;;;3.35;;
70733;SDS011;58320;48.804;9.252;2023-08-31T21:02:49;12.03;;;4.90;;
70733;SDS011;58320;48.804;9.252;2023-08-31T21:05:15;8.40;;;4.28;;
70733;SDS011;58320;48.804;9.252;2023-08-31T21:07:41;7.97;;;3.70;;
70733;SDS011;58320;48.804;9.252;2023-08-31T21:10:07;8.13;;;3.57;;
70733;SDS011;58320;48.804;9.252;2023-08-31T21:12:33;7.57;;;4.20;;
70733;SDS011;58320;48.804;9.252;2023-08-31T21:14:59;7.22;;;3.22;;
70733;SDS011;58320;48.804;9.252;2023-08-31T21:17:25;7.70;;;3.70;;
70733;SDS011;58320;48.804;9.252;2023-08-31T21:19:51;8.13;;;3.93;;
70733;SDS011;58320;48.804;9.252;2023-08-31T21:22:16;7.82;;;4.05;;
70733;SDS011;58320;48.804;9.252;2023-08-31T21:24:42;8.83;;;4.33;;
70733;SDS011;58320;48.804;9.252;2023-08-31T21:27:08;7.10;;;3.88;;
70733;SDS011;58320;48.804;9.252;2023-08-31T21:29:33;11.63;;;4.43;;
70733;SDS011;58320;48.804;9.252;2023-08-31T21:31:59;8.90;;;4.18;;
70733;SDS011;58320;48.804;9.252;2023-08-31T21:34:26;7.55;;;3.90;;
70733;SDS011;58320;48.804;9.252;2023-08-31T21:36:51;9.60;;;4.27;;
70733;SDS011;58320;48.804;9.252;2023-08-31T21:39:17;10.30;;;4.30;;
70733;SDS011;58320;48.804;9.252;2023-08-31T21:41:43;10.13;;;4.20;;
70733;SDS011;58320;48.804;9.252;2023-08-31T21:44:09;10.03;;;4.80;;
70733;SDS011;58320;48.804;9.252;2023-08-31T21:46:34;8.38;;;4.43;;
70733;SDS011;58320;48.804;9.252;2023-08-31T21:49:02;10.70;;;4.30;;
70733;SDS011;58320;48.804;9.252;2023-08-31T21:51:28;9.70;;;4.50;;
70733;SDS011;58320;48.804;9.252;2023-08-31T21:53:54;8.33;;;4.60;;
70733;SDS011;58320;48.804;9.252;2023-08-31T21:56:22;12.13;;;4.70;;
70733;SDS011;58320;48.804;9.252;2023-08-31T21:58:47;9.73;;;4.77;;
70733;SDS011;58320;48.804;9.252;2023-08-31T22:01:13;10.75;;;4.70;;
70733;SDS011;58320;48.804;9.252;2023-08-31T22:03:39;9.82;;;4.70;;
70733;SDS011;58320;48.804;9.252;2023-08-31T22:06:08;10.77;;;5.60;;
70733;SDS011;58320;48.804;9.252;2023-08-31T22:08:37;10.93;;;4.30;;
70733;SDS011;58320;48.804;9.252;2023-08-31T22:11:03;8.38;;;4.50;;
70733;SDS011;58320;48.804;9.252;2023-08-31T22:13:30;9.27;;;4.40;;
70733;SDS011;58320;48.804;9.252;2023-08-31T22:15:57;9.60;;;4.57;;
70733;SDS011;58320;48.804;9.252;2023-08-31T22:18:23;12.77;;;4.45;;
70733;SDS011;58320;48.804;9.252;2023-08-31T22:20:48;13.60;;;4.60;;
70733;SDS011;58320;48.804;9.252;2023-08-31T22:23:14;10.07;;;4.47;;
70733;SDS011;58320;48.804;9.252;2023-08-31T22:25:40;9.60;;;4.03;;
70733;SDS011;58320;48.804;9.252;2023-08-31T22:28:06;8.88;;;4.05;;
70733;SDS011;58320;48.804;9.252;2023-08-31T22:30:32;7.60;;;4.03;;
70733;SDS011;58320;48.804;9.252;2023-08-31T22:32:58;8.07;;;3.97;;
70733;SDS011;58320;48.804;9.252;2023-08-31T22:35:24;9.40;;;3.72;;
70733;SDS011;58320;48.804;9.252;2023-08-31T22:37:49;8.03;;;3.90;;
70733;SDS011;58320;48.804;9.252;2023-08-31T22:40:16;6.82;;;3.70;;
70733;SDS011;58320;48.804;9.252;2023-08-31T22:42:42;6.15;;;3.85;;
70733;SDS011;58320;48.804;9.252;2023-08-31T22:45:09;9.48;;;4.00;;
70733;SDS011;58320;48.804;9.252;2023-08-31T22:47:35;7.43;;;3.50;;
70733;SDS011;58320;48.804;9.252;2023-08-31T22:50:02;7.57;;;3.70;;
70733;SDS011;58320;48.804;9.252;2023-08-31T22:52:30;8.65;;;4.20;;
70733;SDS011;58320;48.804;9.252;2023-08-31T22:54:57;9.80;;;4.40;;
70733;SDS011;58320;48.804;9.252;2023-08-31T22:57:23;9.23;;;4.70;;
70733;SDS011;58320;48.804;9.252;2023-08-31T22:59:50;7.40;;;4.17;;
70733;SDS011;58320;48.804;9.252;2023-08-31T23:02:16;8.52;;;4.50;;
70733;SDS011;58320;48.804;9.252;2023-08-31T23:04:43;9.60;;;4.38;;
70733;SDS011;58320;48.804;9.252;2023-08-31T23:07:09;8.68;;;4.22;;
70733;SDS011;58320;48.804;9.252;2023-08-31T23:09:36;11.63;;;5.22;;
70733;SDS011;58320;48.804;9.252;2023-08-31T23:12:02;8.27;;;4.03;;
70733;SDS011;58320;48.804;9.252;2023-08-31T23:14:29;10.50;;;4.50;;
70733;SDS011;58320;48.804;9.252;2023-08-31T23:16:58;7.53;;;3.90;;
70733;SDS011;58320;48.804;9.252;2023-08-31T23:19:25;10.00;;;4.03;;
70733;SDS011;58320;48.804;9.252;2023-08-31T23:21:52;8.52;;;3.40;;
70733;SDS011;58320;48.804;9.252;2023-08-31T23:24:18;7.57;;;3.37;;
70733;SDS011;58320;48.804;9.252;2023-08-31T23:26:44;6.07;;;2.80;;
70733;SDS011;58320;48.804;9.252;2023-08-31T23:29:10;7.25;;;2.63;;
70733;SDS011;58320;48.804;9.252;2023-08-31T23:31:36;6.75;;;3.20;;
70733;SDS011;58320;48.804;9.252;2023-08-31T23:34:06;6.97;;;2.87;;
70733;SDS011;58320;48.804;9.252;2023-08-31T23:36:32;6.10;;;2.75;;
70733;SDS011;58320;48.804;9.252;2023-08-31T23:38:58;6.00;;;2.63;;
70733;SDS011;58320;48.804;9.252;2023-08-31T23:41:24;8.63;;;3.80;;
70733;SDS011;58320;48.804;9.252;2023-08-31T23:43:50;8.85;;;3.33;;
70733;SDS011;58320;48.804;9.252;2023-08-31T23:46:17;9.20;;;3.57;;
70733;SDS011;58320;48.804;9.252;2023-08-31T23:48:44;5.75;;;3.20;;
70733;SDS011;58320;48.804;9.252;2023-08-31T23:51:10;5.55;;;2.60;;
70733;SDS011;58320;48.804;9.252;2023-08-31T23:53:36;4.80;;;2.43;;
70733;SDS011;58320;48.804;9.252;2023-08-31T23:56:04;5.63;;;2.38;;
70733;SDS011;58320;48.804;9.252;2023-08-31T23:58:30;6.60;;;2.38;;
